Time;durP1;ratioP1;P1;durP2;ratioP2;P2;SDS_P1;SDS_P2;PMS_P1;PMS_P2;Temp;Humidity;BMP_temperature;BMP_pressure;BME280_temperature;BME280_humidity;BME280_pressure;Samples;Min_cycle;Max_cycle;Signal;HPM_P1;HPM_P2
2024/01/31 00:01:48;;;;;;;12.87;8.17;;;;;;;18.15;52.54;102014.22;4960971;28;20500;-73
2024/01/31 00:04:13;;;;;;;14.27;8.53;;;;;;;18.16;53.22;102003.66;5016294;28;20240;-75
2024/01/31 00:06:40;;;;;;;14.57;7.97;;;;;;;18.11;53.31;101996.06;4978864;28;20212;-75
2024/01/31 00:09:06;;;;;;;14.00;7.83;;;;;;;18.04;52.88;102010.03;5012135;28;20170;-74
2024/01/31 00:11:31;;;;;;;17.77;9.00;;;;;;;17.93;52.49;101997.25;4997958;28;20479;-75
2024/01/31 00:13:57;;;;;;;14.43;9.37;;;;;;;17.87;51.93;101997.75;4986737;28;20180;-75
2024/01/31 00:16:22;;;;;;;20.07;10.30;;;;;;;17.97;52.21;102003.97;4960181;28;20236;-76
2024/01/31 00:18:49;;;;;;;15.87;9.83;;;;;;;17.95;52.66;102006.34;4977517;28;20197;-79
2024/01/31 00:21:16;;;;;;;15.50;8.90;;;;;;;18.04;52.53;102006.31;4953570;28;20664;-78
2024/01/31 00:23:41;;;;;;;20.67;11.43;;;;;;;18.04;53.30;102007.19;4995992;28;20444;-78
2024/01/31 00:26:07;;;;;;;17.33;9.63;;;;;;;18.07;52.53;102005.66;4973991;28;20439;-78
2024/01/31 00:28:32;;;;;;;17.33;9.43;;;;;;;18.09;52.90;102009.00;5013364;28;20249;-76
2024/01/31 00:30:58;;;;;;;16.57;9.83;;;;;;;18.08;52.70;102007.34;4960240;28;20205;-74
2024/01/31 00:33:23;;;;;;;16.50;9.27;;;;;;;18.11;52.87;102006.69;4994094;28;20189;-76
2024/01/31 00:35:49;;;;;;;16.60;8.57;;;;;;;18.09;52.42;102004.16;4967068;28;20192;-76
2024/01/31 00:38:14;;;;;;;17.03;9.17;;;;;;;18.06;52.74;102007.66;4974238;28;20352;-75
2024/01/31 00:40:39;;;;;;;19.03;9.27;;;;;;;18.08;52.81;102008.19;4987280;28;20530;-76
2024/01/31 00:43:05;;;;;;;17.57;9.30;;;;;;;18.00;53.12;102005.31;4955508;28;20505;-72
2024/01/31 00:45:30;;;;;;;13.57;8.47;;;;;;;18.06;52.78;102007.66;4985893;28;20485;-72
2024/01/31 00:47:56;;;;;;;14.83;8.70;;;;;;;18.03;53.15;102004.66;5008970;28;20544;-72
2024/01/31 00:50:22;;;;;;;13.93;9.40;;;;;;;17.99;52.16;102003.63;4958413;28;20379;-71
2024/01/31 00:52:47;;;;;;;13.20;8.80;;;;;;;17.99;52.46;102010.19;4989214;28;20186;-72
2024/01/31 00:55:13;;;;;;;20.93;9.20;;;;;;;17.96;52.73;102008.00;5008114;28;20178;-75
2024/01/31 00:57:38;;;;;;;16.73;9.03;;;;;;;17.91;52.71;102008.16;4990422;28;20548;-75
2024/01/31 01:00:05;;;;;;;16.00;8.07;;;;;;;17.88;52.73;102008.00;4972691;28;20465;-75
2024/01/31 01:02:31;;;;;;;18.23;8.60;;;;;;;17.87;52.89;102006.34;4983310;28;20192;-75
2024/01/31 01:04:56;;;;;;;20.83;8.70;;;;;;;17.82;53.17;102010.22;4954665;28;20539;-75
2024/01/31 01:07:22;;;;;;;14.20;7.50;;;;;;;17.84;52.97;102018.41;5010643;28;20433;-74
2024/01/31 01:09:47;;;;;;;14.87;8.50;;;;;;;17.83;52.72;102002.47;4956384;28;20231;-75
2024/01/31 01:12:13;;;;;;;13.87;9.60;;;;;;;17.88;52.51;102014.56;4972038;28;20193;-75
2024/01/31 01:14:38;;;;;;;18.03;8.60;;;;;;;17.83;52.58;102011.88;4953670;28;20206;-75
2024/01/31 01:17:04;;;;;;;12.93;7.47;;;;;;;17.88;52.29;102008.00;4984692;28;20719;-75
2024/01/31 01:19:29;;;;;;;18.70;9.10;;;;;;;17.93;51.84;102005.84;4973238;28;20555;-76
2024/01/31 01:21:56;;;;;;;20.10;9.03;;;;;;;17.94;52.24;102013.22;4974081;28;20731;-74
2024/01/31 01:24:22;;;;;;;14.50;9.00;;;;;;;17.93;51.96;102011.56;4972233;28;20177;-74
2024/01/31 01:26:47;;;;;;;16.03;7.90;;;;;;;17.96;51.68;102010.88;4988598;28;20799;-75
2024/01/31 01:29:13;;;;;;;15.00;8.40;;;;;;;17.91;52.68;102001.63;4968863;28;20193;-75
2024/01/31 01:31:38;;;;;;;13.50;8.13;;;;;;;17.92;53.15;102003.31;4964482;28;20182;-75
2024/01/31 01:34:04;;;;;;;16.70;9.17;;;;;;;17.91;52.70;102002.47;4981150;28;20692;-75
2024/01/31 01:36:29;;;;;;;14.50;8.40;;;;;;;17.90;53.26;102006.50;4963644;28;20185;-76
2024/01/31 01:38:55;;;;;;;14.20;8.37;;;;;;;17.89;52.52;102003.97;4978289;28;20210;-75
2024/01/31 01:41:22;;;;;;;20.67;8.27;;;;;;;17.88;52.42;102008.00;4978261;28;20183;-75
2024/01/31 01:43:47;;;;;;;13.83;7.60;;;;;;;17.88;53.33;102006.00;4980817;28;20201;-75
2024/01/31 01:46:20;;;;;;;13.03;7.70;;;;;;;17.89;53.25;102003.97;4969961;28;20480;-75
2024/01/31 01:48:45;;;;;;;12.87;7.07;;;;;;;17.84;53.15;102001.28;4980128;28;20652;-75
2024/01/31 01:51:14;;;;;;;12.27;7.97;;;;;;;17.85;53.26;102000.94;4971169;28;20511;-75
2024/01/31 01:53:40;;;;;;;14.07;8.17;;;;;;;17.86;53.36;101996.91;4970911;28;20189;-74
2024/01/31 01:56:05;;;;;;;18.07;8.17;;;;;;;17.83;53.40;101997.59;4988059;28;20424;-75
2024/01/31 01:58:32;;;;;;;13.37;7.27;;;;;;;17.85;52.78;101994.41;4987434;28;20213;-75
2024/01/31 02:00:59;;;;;;;11.77;7.07;;;;;;;17.84;53.01;101985.00;4991338;28;20515;-75
2024/01/31 02:03:25;;;;;;;10.70;6.60;;;;;;;17.87;53.47;101983.47;4977665;28;20460;-74
2024/01/31 02:05:50;;;;;;;12.03;7.40;;;;;;;17.81;53.26;101985.66;4972564;28;20799;-74
2024/01/31 02:08:16;;;;;;;11.50;7.07;;;;;;;17.84;53.30;101992.72;4953022;28;20533;-74
2024/01/31 02:10:41;;;;;;;15.67;7.77;;;;;;;17.84;53.60;101982.13;4981836;28;20644;-74
2024/01/31 02:13:07;;;;;;;12.97;7.77;;;;;;;17.85;53.16;101991.56;4972917;28;20243;-74
2024/01/31 02:15:32;;;;;;;14.80;7.23;;;;;;;17.82;53.61;101987.34;4955310;28;20267;-73
2024/01/31 02:17:58;;;;;;;12.50;7.40;;;;;;;17.79;53.62;101988.00;4968580;28;20190;-74
2024/01/31 02:20:24;;;;;;;10.57;6.70;;;;;;;17.84;52.85;101985.00;4965630;28;20564;-74
2024/01/31 02:22:50;;;;;;;11.53;7.27;;;;;;;17.84;53.23;101995.56;4987543;28;20268;-74
2024/01/31 02:25:16;;;;;;;10.63;6.97;;;;;;;17.86;52.98;101994.06;4955904;28;20420;-74
2024/01/31 02:27:41;;;;;;;10.47;6.70;;;;;;;17.84;53.30;101999.28;4955049;28;20332;-74
2024/01/31 02:30:07;;;;;;;13.80;6.80;;;;;;;17.84;53.45;101992.72;4970663;28;20260;-74
2024/01/31 02:32:33;;;;;;;10.60;6.50;;;;;;;17.83;53.27;101991.88;4970211;28;20273;-74
2024/01/31 02:34:59;;;;;;;12.70;6.90;;;;;;;17.86;52.82;101988.34;4988632;28;21018;-74
2024/01/31 02:37:24;;;;;;;11.70;7.00;;;;;;;17.85;52.92;101992.38;4987595;28;20788;-74
2024/01/31 02:39:50;;;;;;;11.70;7.03;;;;;;;17.85;52.90;101986.66;4986973;28;20202;-74
2024/01/31 02:42:15;;;;;;;10.63;6.57;;;;;;;17.84;53.31;101985.00;4967994;28;20253;-74
2024/01/31 02:44:41;;;;;;;10.03;6.20;;;;;;;17.86;52.82;101979.75;4968172;28;20197;-74
2024/01/31 02:47:06;;;;;;;11.63;6.93;;;;;;;17.83;53.30;101976.75;4985988;28;20183;-74
2024/01/31 02:49:31;;;;;;;13.53;6.53;;;;;;;17.86;52.66;101976.09;4952712;28;20246;-74
2024/01/31 02:51:57;;;;;;;10.63;6.60;;;;;;;17.84;52.83;101969.84;4964805;28;20190;-74
2024/01/31 02:54:22;;;;;;;10.03;6.37;;;;;;;17.83;53.07;101976.75;4952874;28;20194;-74
2024/01/31 02:56:48;;;;;;;11.50;6.83;;;;;;;17.81;53.30;101977.06;4985220;28;20170;-74
2024/01/31 02:59:13;;;;;;;8.23;6.03;;;;;;;17.84;53.54;101973.56;4970116;28;20207;-74
2024/01/31 03:01:45;;;;;;;10.17;5.97;;;;;;;17.84;52.87;101973.56;4984098;28;20194;-74
2024/01/31 03:04:11;;;;;;;8.87;5.80;;;;;;;17.83;53.58;101977.59;4992289;28;20184;-74
2024/01/31 03:06:37;;;;;;;10.20;6.00;;;;;;;17.80;53.61;101978.25;4973819;28;20457;-74
2024/01/31 03:09:02;;;;;;;10.47;6.10;;;;;;;17.79;53.23;101976.59;4959897;28;20499;-74
2024/01/31 03:11:28;;;;;;;10.70;6.07;;;;;;;17.82;53.75;101969.38;4992036;28;20193;-74
2024/01/31 03:13:53;;;;;;;9.67;6.43;;;;;;;17.82;53.02;101969.38;4974830;28;20194;-74
2024/01/31 03:16:18;;;;;;;10.03;6.47;;;;;;;17.81;52.90;101968.50;4958216;28;20244;-75
2024/01/31 03:18:44;;;;;;;11.30;6.57;;;;;;;17.80;53.27;101966.84;4958698;28;20519;-75
2024/01/31 03:21:09;;;;;;;10.87;6.07;;;;;;;17.81;53.40;101970.53;4975896;28;20205;-76
2024/01/31 03:23:36;;;;;;;9.37;5.77;;;;;;;17.83;53.64;101966.16;4991085;28;20895;-75
2024/01/31 03:26:01;;;;;;;9.87;5.90;;;;;;;17.82;52.88;101964.50;4973163;28;20185;-74
2024/01/31 03:28:27;;;;;;;7.90;5.27;;;;;;;17.80;53.33;101969.69;4974634;28;20424;-74
2024/01/31 03:30:52;;;;;;;7.67;5.40;;;;;;;17.78;53.25;101957.78;4973076;28;20189;-75
2024/01/31 03:33:18;;;;;;;8.50;6.00;;;;;;;17.81;52.91;101959.94;4973416;28;20189;-75
2024/01/31 03:35:43;;;;;;;9.87;6.10;;;;;;;17.79;53.19;101967.16;4988580;28;20228;-75
2024/01/31 03:38:09;;;;;;;9.03;5.00;;;;;;;17.82;52.90;101967.34;4973420;28;20174;-75
2024/01/31 03:40:34;;;;;;;10.00;6.30;;;;;;;17.76;53.75;101960.09;4973086;28;20244;-75
2024/01/31 03:42:59;;;;;;;9.30;6.70;;;;;;;17.77;53.77;101972.38;4955239;28;20194;-75
2024/01/31 03:45:25;;;;;;;10.00;5.87;;;;;;;17.81;52.91;101979.13;4974253;28;20194;-75
2024/01/31 03:47:51;;;;;;;10.77;5.80;;;;;;;17.77;53.77;101978.94;4941064;28;20209;-75
2024/01/31 03:50:17;;;;;;;9.40;5.97;;;;;;;17.77;53.25;101970.38;4946322;28;20928;-75
2024/01/31 03:52:42;;;;;;;9.47;6.10;;;;;;;17.78;52.87;101980.63;4955459;28;20278;-75
2024/01/31 03:55:09;;;;;;;11.10;5.40;;;;;;;17.79;53.36;101987.16;4971653;28;20178;-75
2024/01/31 03:57:34;;;;;;;8.80;6.10;;;;;;;17.76;53.67;101985.81;4971501;28;20256;-75
2024/01/31 04:00:05;;;;;;;8.80;5.80;;;;;;;17.75;54.13;101987.00;4988047;28;20544;-75
2024/01/31 04:02:30;;;;;;;11.13;5.67;;;;;;;17.79;52.94;101982.28;4974336;28;20186;-75
2024/01/31 04:04:56;;;;;;;10.10;5.90;;;;;;;17.76;53.69;101988.66;4976472;28;20465;-75
2024/01/31 04:07:21;;;;;;;8.93;5.40;;;;;;;17.75;53.39;101992.72;4990848;28;20217;-75
2024/01/31 04:09:47;;;;;;;9.33;5.20;;;;;;;17.76;53.38;101999.28;4974388;28;20317;-75
2024/01/31 04:12:12;;;;;;;9.17;5.57;;;;;;;17.77;53.64;101990.38;4972478;28;20190;-75
2024/01/31 04:14:38;;;;;;;8.40;5.90;;;;;;;17.79;52.93;101993.72;4990987;28;20209;-75
2024/01/31 04:17:03;;;;;;;8.67;5.63;;;;;;;17.74;54.01;101995.91;4974321;28;20547;-75
2024/01/31 04:19:29;;;;;;;7.20;4.83;;;;;;;17.77;53.70;101993.22;4957610;28;20218;-75
2024/01/31 04:21:54;;;;;;;8.93;5.53;;;;;;;17.77;53.19;102001.81;4958200;28;20533;-75
2024/01/31 04:24:20;;;;;;;8.17;5.90;;;;;;;17.74;53.62;102007.31;4973125;28;20177;-75
2024/01/31 04:26:45;;;;;;;8.47;5.67;;;;;;;17.75;53.37;102007.00;4957539;28;20174;-74
2024/01/31 04:29:10;;;;;;;8.60;6.40;;;;;;;17.78;53.87;102006.34;4990315;28;20238;-74
2024/01/31 04:31:36;;;;;;;6.77;4.93;;;;;;;17.79;53.12;102004.28;4979578;28;20177;-74
2024/01/31 04:34:04;;;;;;;9.10;5.37;;;;;;;17.75;53.90;102006.16;4978592;28;20178;-74
2024/01/31 04:36:33;;;;;;;8.33;5.70;;;;;;;17.75;53.75;102009.84;4978883;28;20182;-74
2024/01/31 04:38:59;;;;;;;8.83;6.03;;;;;;;17.76;53.56;102005.81;4995651;28;20473;-75
2024/01/31 04:41:24;;;;;;;7.07;4.90;;;;;;;17.80;53.16;102018.25;4979628;28;20417;-74
2024/01/31 04:43:50;;;;;;;9.00;5.40;;;;;;;17.81;53.23;102017.06;4977125;28;20457;-75
2024/01/31 04:46:15;;;;;;;7.23;4.87;;;;;;;17.80;53.14;102014.56;4979666;28;20173;-74
2024/01/31 04:48:41;;;;;;;8.27;5.60;;;;;;;17.75;53.63;102024.13;4962831;28;20181;-74
2024/01/31 04:51:06;;;;;;;8.83;5.40;;;;;;;17.76;54.04;102020.09;4980961;28;20174;-74
2024/01/31 04:53:31;;;;;;;7.20;5.43;;;;;;;17.79;53.54;102027.16;4964579;28;20224;-73
2024/01/31 04:55:57;;;;;;;11.00;6.17;;;;;;;17.77;53.46;102033.22;4981105;28;20181;-74
2024/01/31 04:58:22;;;;;;;9.90;5.83;;;;;;;17.78;53.41;102026.34;4963314;28;20194;-75
2024/01/31 05:00:48;;;;;;;10.00;5.73;;;;;;;17.77;53.43;102038.09;4965393;28;20165;-74
2024/01/31 05:03:13;;;;;;;9.30;5.50;;;;;;;17.80;53.82;102035.41;4964552;28;20241;-74
2024/01/31 05:05:39;;;;;;;8.53;5.30;;;;;;;17.79;54.12;102039.44;4994691;28;20550;-74
2024/01/31 05:08:08;;;;;;;8.27;5.53;;;;;;;17.77;53.17;102041.78;4963675;28;20182;-74
2024/01/31 05:10:34;;;;;;;7.80;5.20;;;;;;;17.76;53.84;102045.81;4964246;28;20177;-73
2024/01/31 05:13:00;;;;;;;8.53;5.47;;;;;;;17.78;53.49;102043.47;4961751;28;20445;-74
2024/01/31 05:15:25;;;;;;;7.17;4.60;;;;;;;17.77;53.23;102044.66;4974209;28;20481;-75
2024/01/31 05:17:51;;;;;;;8.67;4.80;;;;;;;17.75;53.37;102046.97;4989689;28;21086;-74
2024/01/31 05:20:16;;;;;;;7.47;4.67;;;;;;;17.78;53.75;102049.19;4975612;28;20205;-74
2024/01/31 05:22:42;;;;;;;7.80;5.03;;;;;;;17.77;53.40;102049.50;4975824;28;20186;-74
2024/01/31 05:25:08;;;;;;;8.83;4.73;;;;;;;17.76;53.78;102050.69;4976785;28;20189;-74
2024/01/31 05:27:34;;;;;;;8.10;4.97;;;;;;;17.78;52.79;102036.91;4976710;28;20184;-74
2024/01/31 05:30:00;;;;;;;9.10;5.67;;;;;;;17.74;53.51;102042.44;4978892;28;20180;-74
2024/01/31 05:32:25;;;;;;;9.40;5.80;;;;;;;17.79;53.57;102050.88;4980047;28;20885;-75
2024/01/31 05:34:50;;;;;;;9.73;5.77;;;;;;;17.77;53.41;102047.50;4994854;28;20186;-74
2024/01/31 05:37:16;;;;;;;7.17;4.83;;;;;;;17.79;53.45;102059.44;4958158;28;20182;-73
2024/01/31 05:39:41;;;;;;;8.57;5.77;;;;;;;17.78;54.15;102060.63;4973030;28;20232;-73
2024/01/31 05:42:07;;;;;;;8.03;5.53;;;;;;;17.80;53.15;102058.25;4973124;28;20185;-73
2024/01/31 05:44:32;;;;;;;6.70;4.73;;;;;;;17.80;53.00;102058.25;4989281;28;20177;-74
2024/01/31 05:46:58;;;;;;;7.80;4.90;;;;;;;17.79;53.74;102052.88;4972757;28;20228;-74
2024/01/31 05:49:23;;;;;;;7.73;5.13;;;;;;;17.81;53.51;102056.25;4985739;28;20197;-76
2024/01/31 05:51:51;;;;;;;8.87;5.67;;;;;;;17.77;53.58;102058.94;4973297;28;20189;-74
2024/01/31 05:54:16;;;;;;;8.33;5.33;;;;;;;17.76;54.08;102053.56;4966279;28;20177;-74
2024/01/31 05:56:42;;;;;;;6.50;4.20;;;;;;;17.79;53.57;102056.56;4954440;28;20429;-74
2024/01/31 05:59:08;;;;;;;7.60;5.03;;;;;;;17.81;53.33;102057.06;4952653;28;20444;-73
2024/01/31 06:01:34;;;;;;;8.67;5.43;;;;;;;17.79;53.32;102062.28;4976691;28;20201;-74
2024/01/31 06:04:02;;;;;;;8.07;5.10;;;;;;;17.79;53.47;102050.88;4936892;28;20430;-74
2024/01/31 06:06:27;;;;;;;8.20;4.80;;;;;;;17.81;53.18;102051.34;4939171;28;20181;-73
2024/01/31 06:08:52;;;;;;;7.23;4.80;;;;;;;17.82;53.24;102061.63;4971721;28;20425;-74
2024/01/31 06:11:18;;;;;;;8.20;4.90;;;;;;;17.76;53.31;102062.94;4989134;28;20248;-76
2024/01/31 06:13:43;;;;;;;11.97;8.10;;;;;;;17.49;52.55;102068.06;4969736;28;20185;-74
2024/01/31 06:16:10;;;;;;;13.40;9.60;;;;;;;17.46;52.99;102063.88;4983521;28;20228;-77
2024/01/31 06:18:37;;;;;;;18.83;11.20;;;;;;;17.82;54.60;102060.78;4993572;28;20192;-77
2024/01/31 06:21:04;;;;;;;22.30;12.90;;;;;;;18.14;55.55;102058.28;4988507;28;20447;-77
2024/01/31 06:23:29;;;;;;;25.90;11.90;;;;;;;17.77;52.71;102069.50;4985407;28;20436;-78
2024/01/31 06:25:55;;;;;;;13.87;9.90;;;;;;;17.77;51.79;102066.66;4992922;28;20416;-77
2024/01/31 06:28:21;;;;;;;17.60;9.97;;;;;;;17.93;50.48;102074.41;4988856;28;20185;-76
2024/01/31 06:30:58;;;;;;;16.53;8.77;;;;;;;18.11;50.68;102061.00;4956140;28;20219;-75
2024/01/31 06:33:27;;;;;;;16.97;10.77;;;;;;;18.09;49.82;102061.31;4987695;28;20420;-73
2024/01/31 06:35:53;;;;;;;16.00;9.17;;;;;;;18.44;49.57;102056.44;5027584;28;20456;-76
2024/01/31 06:38:18;;;;;;;18.03;9.40;;;;;;;18.81;48.92;102061.47;4985841;28;20447;-74
2024/01/31 06:40:43;;;;;;;17.23;9.47;;;;;;;18.94;49.13;102064.09;4983887;28;20614;-75
2024/01/31 06:43:09;;;;;;;17.50;9.00;;;;;;;18.93;49.45;102073.88;4972632;28;21041;-74
2024/01/31 06:45:34;;;;;;;13.50;9.13;;;;;;;18.99;49.09;102063.94;4959785;28;20208;-74
2024/01/31 06:48:00;;;;;;;12.57;8.40;;;;;;;18.95;49.57;102068.66;4992373;28;20174;-74
2024/01/31 06:50:26;;;;;;;12.10;8.47;;;;;;;18.93;49.87;102065.31;4969919;28;20179;-74
2024/01/31 06:52:51;;;;;;;15.50;9.40;;;;;;;18.93;49.95;102061.59;4980618;28;20432;-74
2024/01/31 06:55:17;;;;;;;11.60;8.17;;;;;;;18.92;50.21;102068.50;4990366;28;20193;-73
2024/01/31 06:57:42;;;;;;;12.77;7.80;;;;;;;18.90;50.36;102065.13;4971282;28;20197;-76
2024/01/31 07:00:11;;;;;;;12.00;7.83;;;;;;;18.73;51.58;102066.03;4988873;28;20210;-76
2024/01/31 07:02:37;;;;;;;13.57;8.37;;;;;;;18.86;52.13;102075.59;4996162;28;20220;-78
2024/01/31 07:05:04;;;;;;;14.20;8.50;;;;;;;18.93;52.72;102071.03;4977777;28;20444;-75
2024/01/31 07:07:30;;;;;;;10.47;7.80;;;;;;;18.71;52.66;102073.25;4974899;28;20425;-75
2024/01/31 07:09:55;;;;;;;12.77;9.17;;;;;;;18.56;54.04;102070.94;5003599;28;20439;-74
2024/01/31 07:12:20;;;;;;;12.77;8.57;;;;;;;18.55;54.20;102069.22;4972994;28;21099;-75
2024/01/31 07:14:46;;;;;;;13.68;9.30;;;;;;;18.60;53.80;102075.63;4950483;28;1140716;-74
2024/01/31 07:17:11;;;;;;;12.23;9.00;;;;;;;18.60;54.53;102075.63;4990825;28;20196;-76
2024/01/31 07:19:42;;;;;;;14.30;8.40;;;;;;;18.56;54.59;102071.75;4994782;28;20212;-75
2024/01/31 07:22:08;;;;;;;12.87;8.40;;;;;;;18.50;54.99;102075.97;5003710;28;20216;-75
2024/01/31 07:24:34;;;;;;;15.00;8.30;;;;;;;18.50;54.91;102075.13;4974616;28;20440;-75
2024/01/31 07:27:00;;;;;;;12.70;8.27;;;;;;;18.48;55.39;102077.47;4956186;28;20277;-73
2024/01/31 07:29:25;;;;;;;14.93;8.97;;;;;;;18.42;54.39;102082.53;4957676;28;20417;-79
2024/01/31 07:31:51;;;;;;;15.80;8.20;;;;;;;18.38;53.68;102081.53;4960401;28;20190;-79
2024/01/31 07:34:16;;;;;;;12.03;8.70;;;;;;;18.37;54.22;102076.16;4988666;28;20192;-76
2024/01/31 07:36:42;;;;;;;14.00;8.37;;;;;;;18.35;54.36;102073.63;4956699;28;20676;-76
2024/01/31 07:39:07;;;;;;;13.13;7.87;;;;;;;18.34;54.34;102071.09;4973238;28;21030;-75
2024/01/31 07:41:33;;;;;;;18.57;9.13;;;;;;;18.38;54.30;102072.97;4957059;28;20194;-75
2024/01/31 07:43:59;;;;;;;19.63;8.57;;;;;;;18.41;53.44;102072.25;4965869;28;20224;-74
2024/01/31 07:46:24;;;;;;;13.57;8.40;;;;;;;18.37;53.78;102068.41;4962838;28;20229;-76
2024/01/31 07:48:50;;;;;;;13.93;7.93;;;;;;;18.26;54.29;102072.75;4965750;28;20197;-74
2024/01/31 07:51:18;;;;;;;15.13;7.80;;;;;;;18.20;53.41;102071.22;4991388;28;20255;-72
2024/01/31 07:53:43;;;;;;;18.13;8.73;;;;;;;18.14;53.19;102072.59;4977249;28;20186;-72
2024/01/31 07:56:09;;;;;;;17.00;8.30;;;;;;;18.13;54.76;102073.75;4977367;28;20413;-72
2024/01/31 07:58:35;;;;;;;16.77;8.73;;;;;;;18.11;53.72;102081.00;4974894;28;20186;-71
2024/01/31 08:01:01;;;;;;;16.37;8.33;;;;;;;18.11;55.21;102081.00;5002264;28;20193;-71
2024/01/31 08:03:26;;;;;;;15.93;7.80;;;;;;;18.12;55.91;102074.91;4983354;28;20183;-71
2024/01/31 08:05:51;;;;;;;27.43;8.73;;;;;;;18.15;55.51;102070.53;4974085;28;20504;-71
2024/01/31 08:08:17;;;;;;;18.60;8.87;;;;;;;18.14;55.72;102077.44;4974480;28;20185;-71
2024/01/31 08:10:42;;;;;;;23.17;9.13;;;;;;;18.13;55.07;102073.75;4959278;28;20189;-71
2024/01/31 08:13:09;;;;;;;13.63;7.03;;;;;;;18.15;55.08;102076.25;4976333;28;20186;-71
2024/01/31 08:15:34;;;;;;;23.67;8.47;;;;;;;18.15;55.17;102067.69;4975508;28;20700;-71
2024/01/31 08:18:03;;;;;;;15.67;7.33;;;;;;;18.15;55.16;102070.53;4991476;28;20420;-72
2024/01/31 08:20:29;;;;;;;12.93;6.67;;;;;;;18.17;55.43;102063.31;4959055;28;20624;-71
2024/01/31 08:22:55;;;;;;;19.30;7.77;;;;;;;18.15;54.92;102065.69;4959398;28;20452;-71
2024/01/31 08:25:20;;;;;;;17.23;7.70;;;;;;;18.10;55.30;102068.72;4958166;28;20433;-71
2024/01/31 08:27:48;;;;;;;15.73;6.87;;;;;;;18.12;55.97;102074.09;4957175;28;20205;-71
2024/01/31 08:30:15;;;;;;;22.83;7.83;;;;;;;18.14;54.87;102080.31;4990374;28;20178;-71
2024/01/31 08:32:41;;;;;;;15.17;7.90;;;;;;;18.13;54.87;102084.34;4991749;28;20483;-70
2024/01/31 08:35:06;;;;;;;14.87;7.20;;;;;;;18.14;54.99;102086.03;4958745;28;20436;-71
2024/01/31 08:37:32;;;;;;;16.60;6.80;;;;;;;18.13;55.09;102085.19;4958343;28;20209;-71
2024/01/31 08:39:57;;;;;;;14.90;7.10;;;;;;;18.11;55.35;102081.81;4971754;28;20269;-71
2024/01/31 08:42:28;;;;;;;11.60;6.40;;;;;;;18.11;54.99;102086.72;4980422;28;20667;-71
2024/01/31 08:44:54;;;;;;;17.83;7.37;;;;;;;18.12;54.60;102088.38;4974423;28;20737;-71
2024/01/31 08:47:19;;;;;;;17.60;7.00;;;;;;;18.08;55.34;102079.66;4974372;28;20430;-71
2024/01/31 08:49:45;;;;;;;21.87;7.73;;;;;;;18.11;55.19;102081.81;4975979;28;20192;-71
2024/01/31 08:52:11;;;;;;;13.90;6.80;;;;;;;18.09;55.03;102084.19;4990977;28;20181;-71
2024/01/31 08:54:36;;;;;;;16.50;6.17;;;;;;;18.09;55.24;102081.31;4975520;28;20190;-71
2024/01/31 08:57:02;;;;;;;11.80;6.67;;;;;;;18.07;55.22;102083.66;4974713;28;20405;-71
2024/01/31 08:59:27;;;;;;;13.53;7.17;;;;;;;18.08;55.12;102088.22;4958606;28;20259;-71
2024/01/31 09:01:53;;;;;;;13.73;6.37;;;;;;;18.07;55.46;102085.69;4955900;28;20193;-71
2024/01/31 09:04:18;;;;;;;11.73;7.07;;;;;;;18.11;54.55;102084.69;4955919;28;20195;-71
2024/01/31 09:06:44;;;;;;;11.30;6.33;;;;;;;18.09;55.44;102086.19;4965103;28;20182;-74
2024/01/31 09:09:10;;;;;;;14.23;5.80;;;;;;;18.08;54.91;102076.78;4974816;28;20224;-74
2024/01/31 09:11:35;;;;;;;10.70;6.63;;;;;;;18.08;55.16;102088.22;4989133;28;20181;-74
2024/01/31 09:14:01;;;;;;;10.57;6.03;;;;;;;18.07;55.05;102086.50;4959281;28;20197;-74
2024/01/31 09:16:26;;;;;;;13.50;6.57;;;;;;;18.08;55.23;102081.66;4974804;28;20233;-74
2024/01/31 09:18:52;;;;;;;13.90;6.57;;;;;;;18.08;54.80;102088.22;4957875;28;20221;-74
2024/01/31 09:21:21;;;;;;;8.57;5.10;;;;;;;18.08;54.87;102075.94;4974740;28;20162;-73
2024/01/31 09:23:47;;;;;;;17.00;7.67;;;;;;;18.06;55.21;102073.41;4974699;28;20185;-73
2024/01/31 09:26:13;;;;;;;12.00;7.07;;;;;;;18.07;55.00;102062.81;4956570;28;20986;-74
2024/01/31 09:28:39;;;;;;;14.80;6.77;;;;;;;18.08;55.24;102064.50;4972246;28;20201;-73
2024/01/31 09:31:04;;;;;;;13.90;6.60;;;;;;;18.07;54.42;102063.66;4972495;28;20299;-73
2024/01/31 09:33:30;;;;;;;9.90;6.00;;;;;;;18.09;54.70;102069.03;4957127;28;20182;-74
2024/01/31 09:35:55;;;;;;;9.80;5.90;;;;;;;18.08;55.24;102078.78;4973323;28;20621;-74
2024/01/31 09:38:25;;;;;;;18.07;7.07;;;;;;;18.10;54.65;102091.56;4989623;28;20206;-73
2024/01/31 09:40:51;;;;;;;12.10;6.37;;;;;;;18.08;54.82;102079.66;4972452;28;21115;-73
2024/01/31 09:43:16;;;;;;;11.57;5.60;;;;;;;18.07;54.72;102080.78;4990081;28;20437;-74
2024/01/31 09:45:41;;;;;;;14.40;6.60;;;;;;;18.08;55.08;102075.94;4990368;28;20182;-74
2024/01/31 09:48:07;;;;;;;18.77;6.60;;;;;;;18.08;54.62;102076.78;4973810;28;20183;-74
2024/01/31 09:50:32;;;;;;;10.13;5.50;;;;;;;18.12;54.48;102082.66;4957485;28;20190;-73
2024/01/31 09:52:58;;;;;;;11.70;6.10;;;;;;;18.08;54.52;102076.78;4974132;28;20190;-73
2024/01/31 09:55:23;;;;;;;12.73;5.53;;;;;;;18.08;54.82;102079.66;4973640;28;20189;-73
2024/01/31 09:57:49;;;;;;;11.03;5.20;;;;;;;18.11;54.84;102063.84;4970077;28;20185;-73
2024/01/31 10:00:15;;;;;;;10.00;5.80;;;;;;;18.12;55.16;102069.19;4954410;28;20217;-74
2024/01/31 10:02:41;;;;;;;9.30;6.20;;;;;;;18.10;54.80;102077.28;4973111;28;20226;-74
2024/01/31 10:05:07;;;;;;;10.27;5.40;;;;;;;18.08;54.81;102065.34;4973405;28;20539;-73
2024/01/31 10:07:32;;;;;;;12.40;5.57;;;;;;;18.12;54.32;102059.81;4971976;28;20507;-74
2024/01/31 10:09:59;;;;;;;11.37;6.23;;;;;;;18.08;54.76;102058.78;4973667;28;20213;-74
2024/01/31 10:12:25;;;;;;;13.93;7.20;;;;;;;18.10;54.94;102060.13;4989735;28;20673;-73
2024/01/31 10:14:55;;;;;;;13.80;6.10;;;;;;;18.10;54.67;102056.41;4989044;28;20480;-74
2024/01/31 10:17:21;;;;;;;11.10;5.70;;;;;;;18.08;54.59;102053.06;4957160;28;20436;-75
2024/01/31 10:19:47;;;;;;;11.83;5.33;;;;;;;18.14;54.41;102051.72;4987977;28;20464;-74
2024/01/31 10:22:13;;;;;;;12.40;5.50;;;;;;;18.10;54.58;102051.56;4987847;28;20447;-75
2024/01/31 10:24:38;;;;;;;10.20;5.57;;;;;;;18.10;54.82;102057.28;4971859;28;20429;-74
2024/01/31 10:27:08;;;;;;;11.13;5.80;;;;;;;18.13;54.41;102053.75;4987474;28;20708;-74
2024/01/31 10:29:34;;;;;;;11.90;5.50;;;;;;;18.11;55.05;102055.28;4972409;28;20213;-74
2024/01/31 10:32:00;;;;;;;9.53;5.50;;;;;;;18.09;54.90;102055.59;4971135;28;20456;-75
2024/01/31 10:34:27;;;;;;;10.30;5.40;;;;;;;18.16;54.22;102052.25;4971758;28;20265;-74
2024/01/31 10:36:53;;;;;;;7.57;5.50;;;;;;;18.12;54.67;102054.91;4987646;28;20185;-74
2024/01/31 10:39:20;;;;;;;13.30;5.33;;;;;;;18.13;54.28;102048.03;4987514;28;20483;-74
2024/01/31 10:41:46;;;;;;;9.60;5.50;;;;;;;18.12;55.09;102049.19;4954421;28;20437;-74
2024/01/31 10:44:14;;;;;;;10.70;5.50;;;;;;;18.12;54.64;102048.38;4968504;28;20536;-74
2024/01/31 10:46:41;;;;;;;8.80;4.77;;;;;;;18.10;54.61;102045.00;4985447;28;20450;-75
2024/01/31 10:49:06;;;;;;;11.33;5.03;;;;;;;18.15;53.95;102037.09;4968828;28;20426;-74
2024/01/31 10:51:32;;;;;;;9.90;5.60;;;;;;;18.12;54.60;102034.06;4988694;28;20425;-74
2024/01/31 10:53:57;;;;;;;9.13;5.37;;;;;;;18.14;54.43;102029.72;4972478;28;20537;-75
2024/01/31 10:56:24;;;;;;;13.47;5.00;;;;;;;18.12;54.53;102022.66;4988176;28;20189;-74
2024/01/31 10:58:49;;;;;;;10.53;5.20;;;;;;;18.18;54.20;102021.28;4972115;28;20177;-74
2024/01/31 11:01:15;;;;;;;8.77;5.00;;;;;;;18.15;54.55;102016.22;4959943;28;20932;-74
2024/01/31 11:03:47;;;;;;;8.37;4.53;;;;;;;18.17;54.74;102011.03;4953469;28;20159;-74
2024/01/31 11:06:13;;;;;;;10.57;5.67;;;;;;;18.14;54.60;102006.00;4982780;28;21151;-74
2024/01/31 11:08:41;;;;;;;10.97;5.30;;;;;;;18.16;54.32;102009.38;4972267;28;20441;-74
2024/01/31 11:11:10;;;;;;;10.20;4.83;;;;;;;18.16;53.98;101998.75;4956004;28;20660;-74
2024/01/31 11:13:36;;;;;;;7.63;4.83;;;;;;;18.15;54.33;101991.38;4951914;28;20444;-74